Time;durP1;ratioP1;P1;durP2;ratioP2;P2;SDS_P1;SDS_P2;PMS_P1;PMS_P2;Temp;Humidity;BMP_temperature;BMP_pressure;BME280_temperature;BME280_humidity;BME280_pressure;Samples;Min_cycle;Max_cycle;Signal;HPM_P1;HPM_P2
2021/03/02 00:19:48;;;;;;;39.10;30.30;;;1.70;99.90;;;;;;5038726;28;20991;-74
2021/03/02 00:22:22;;;;;;;32.90;29.47;;;1.60;99.90;;;;;;5022104;28;20471;-74
2021/03/02 00:24:51;;;;;;;34.37;30.63;;;1.50;99.90;;;;;;5022810;28;21061;-77
2021/03/02 00:27:19;;;;;;;38.43;29.37;;;1.50;99.90;;;;;;5011617;28;21032;-76
2021/03/02 00:29:47;;;;;;;35.63;29.67;;;1.40;99.90;;;;;;5017344;28;20749;-75
2021/03/02 00:32:17;;;;;;;32.43;28.93;;;1.40;99.90;;;;;;5023042;28;20833;-77
2021/03/02 00:34:44;;;;;;;33.17;29.57;;;1.40;99.90;;;;;;5024171;28;20491;-75
2021/03/02 00:37:11;;;;;;;38.27;29.30;;;1.40;99.90;;;;;;5016544;28;20462;-79
2021/03/02 00:39:38;;;;;;;37.67;29.60;;;1.50;99.90;;;;;;5016351;28;20512;-77
2021/03/02 00:42:05;;;;;;;37.90;29.80;;;1.50;99.90;;;;;;5019972;28;20477;-74
2021/03/02 00:44:31;;;;;;;40.10;31.03;;;1.40;99.90;;;;;;5019570;28;20460;-77
2021/03/02 00:46:58;;;;;;;37.33;29.40;;;1.30;99.90;;;;;;5021679;28;20492;-74
2021/03/02 00:49:25;;;;;;;39.00;29.67;;;1.20;99.90;;;;;;5017903;28;20483;-72
2021/03/02 00:51:52;;;;;;;34.37;29.23;;;1.20;99.90;;;;;;5020046;28;20515;-72
2021/03/02 00:54:20;;;;;;;34.77;30.60;;;1.30;99.90;;;;;;5019655;28;20503;-75
2021/03/02 00:56:46;;;;;;;33.17;29.43;;;1.30;99.90;;;;;;5019747;28;20472;-75
2021/03/02 00:59:13;;;;;;;36.13;30.63;;;1.20;99.90;;;;;;5022809;28;20546;-73
2021/03/02 01:01:39;;;;;;;40.20;31.77;;;1.30;99.90;;;;;;5014534;28;20469;-76
2021/03/02 01:04:05;;;;;;;37.60;29.73;;;1.30;99.90;;;;;;5021484;28;20476;-72
2021/03/02 01:06:31;;;;;;;32.57;28.90;;;1.30;99.90;;;;;;5011838;28;20507;-74
2021/03/02 01:09:00;;;;;;;39.87;30.90;;;1.40;99.90;;;;;;5018576;28;20696;-72
2021/03/02 01:11:26;;;;;;;34.57;28.40;;;1.40;99.90;;;;;;5021787;28;21212;-72
2021/03/02 01:13:53;;;;;;;34.87;28.73;;;1.30;99.90;;;;;;5016282;28;20925;-77
2021/03/02 01:16:20;;;;;;;32.00;28.70;;;1.30;99.90;;;;;;5013633;28;20552;-75
2021/03/02 01:18:47;;;;;;;30.27;26.97;;;1.20;99.90;;;;;;5015727;28;20490;-74
2021/03/02 01:21:14;;;;;;;33.37;28.77;;;1.20;99.90;;;;;;5029155;28;20493;-76
2021/03/02 01:23:40;;;;;;;30.20;27.10;;;1.20;99.90;;;;;;5034482;28;20474;-76
2021/03/02 01:26:08;;;;;;;32.07;27.57;;;1.10;99.90;;;;;;5041032;28;20453;-78
2021/03/02 01:28:35;;;;;;;31.60;28.17;;;1.20;99.90;;;;;;5037851;28;20472;-75
2021/03/02 01:31:01;;;;;;;32.27;28.37;;;1.10;99.90;;;;;;5040973;28;20490;-74
2021/03/02 01:33:27;;;;;;;29.57;26.40;;;1.10;99.90;;;;;;5027987;28;20471;-76
2021/03/02 01:35:53;;;;;;;27.07;24.67;;;1.10;99.90;;;;;;5034509;28;20459;-73
2021/03/02 01:38:20;;;;;;;28.37;25.47;;;1.10;99.90;;;;;;5035273;28;20493;-75
2021/03/02 01:40:46;;;;;;;28.67;25.13;;;1.20;99.90;;;;;;5032809;28;20571;-74
2021/03/02 01:43:15;;;;;;;28.70;25.60;;;1.20;99.90;;;;;;5035764;28;20478;-76
2021/03/02 01:45:41;;;;;;;28.27;25.40;;;1.10;99.90;;;;;;5035465;28;20471;-74
2021/03/02 01:48:09;;;;;;;28.90;25.80;;;1.10;99.90;;;;;;5037336;28;20474;-76
2021/03/02 01:50:35;;;;;;;29.23;26.33;;;1.10;99.90;;;;;;5034644;28;20463;-73
2021/03/02 01:53:02;;;;;;;34.60;29.50;;;1.20;99.90;;;;;;5036967;28;20469;-75
2021/03/02 01:55:29;;;;;;;29.47;26.27;;;1.20;99.90;;;;;;5034234;28;20834;-73
2021/03/02 01:57:55;;;;;;;29.90;26.83;;;1.20;99.90;;;;;;5034867;28;21294;-74
2021/03/02 02:00:28;;;;;;;27.20;24.50;;;1.20;99.90;;;;;;5039265;28;20858;-73
2021/03/02 02:03:23;;;;;;;28.10;25.10;;;1.10;99.90;;;;;;5031081;28;20493;-76
2021/03/02 02:05:54;;;;;;;28.03;24.90;;;1.10;99.90;;;;;;5035189;28;20463;-73
2021/03/02 02:08:27;;;;;;;27.27;24.77;;;1.10;99.90;;;;;;5031702;28;20456;-73
2021/03/02 02:10:58;;;;;;;29.57;26.70;;;1.10;99.90;;;;;;5038262;28;20468;-76
2021/03/02 02:13:32;;;;;;;34.77;26.60;;;1.10;99.90;;;;;;5036419;28;20467;-75
2021/03/02 02:16:06;;;;;;;29.70;26.10;;;1.10;99.90;;;;;;5034977;28;20460;-74
2021/03/02 02:18:34;;;;;;;30.50;26.90;;;1.10;99.90;;;;;;5034710;28;20854;-74
2021/03/02 02:21:11;;;;;;;32.03;25.10;;;1.10;99.90;;;;;;5037634;28;20490;-75
2021/03/02 02:23:42;;;;;;;30.03;26.83;;;1.10;99.90;;;;;;5037193;28;21201;-73
2021/03/02 02:26:22;;;;;;;30.30;26.83;;;1.10;99.90;;;;;;5038499;28;21022;-75
2021/03/02 02:28:50;;;;;;;29.30;26.20;;;1.10;99.90;;;;;;5037570;28;20463;-76
2021/03/02 02:31:19;;;;;;;33.67;26.07;;;1.10;99.90;;;;;;5033153;28;20503;-76
2021/03/02 02:33:50;;;;;;;29.80;26.70;;;1.10;99.90;;;;;;5034439;28;20467;-75
2021/03/02 02:36:18;;;;;;;32.77;28.70;;;1.10;99.90;;;;;;5034909;28;20478;-73
2021/03/02 02:38:48;;;;;;;33.30;25.00;;;1.10;99.90;;;;;;5037428;28;20488;-74
2021/03/02 02:41:15;;;;;;;32.50;27.47;;;1.10;99.90;;;;;;5037338;28;20466;-74
2021/03/02 02:43:43;;;;;;;30.77;27.70;;;1.00;99.90;;;;;;5035200;28;20460;-75
2021/03/02 02:46:11;;;;;;;32.13;28.50;;;1.00;99.90;;;;;;5035975;28;20539;-73
2021/03/02 02:48:37;;;;;;;36.87;28.10;;;1.10;99.90;;;;;;5034429;28;20467;-72
2021/03/02 02:51:05;;;;;;;34.40;28.37;;;1.10;99.90;;;;;;5032428;28;20469;-75
2021/03/02 02:53:32;;;;;;;29.77;26.77;;;1.10;99.90;;;;;;5044062;28;20477;-74
2021/03/02 02:56:00;;;;;;;30.07;27.00;;;1.20;99.90;;;;;;5034216;28;20470;-75
2021/03/02 02:58:33;;;;;;;31.80;27.50;;;1.30;99.90;;;;;;5037133;28;21050;-72
2021/03/02 03:01:04;;;;;;;32.63;27.17;;;1.30;99.90;;;;;;5031474;28;20494;-73
2021/03/02 03:03:34;;;;;;;32.00;28.73;;;1.20;99.90;;;;;;5035947;28;20464;-72
2021/03/02 03:06:06;;;;;;;30.10;27.20;;;1.20;99.90;;;;;;5032985;28;20522;-72
2021/03/02 03:08:34;;;;;;;32.33;28.83;;;1.20;99.90;;;;;;5035812;28;20475;-74
2021/03/02 03:11:03;;;;;;;31.23;28.10;;;1.10;99.90;;;;;;5034688;28;20494;-74
2021/03/02 03:13:34;;;;;;;30.57;27.23;;;1.10;99.90;;;;;;5035443;28;20463;-74
2021/03/02 03:16:02;;;;;;;30.90;27.63;;;1.10;99.90;;;;;;5038231;28;21047;-76
2021/03/02 03:18:33;;;;;;;30.80;27.47;;;1.00;99.90;;;;;;5036212;28;20495;-74
2021/03/02 03:21:00;;;;;;;34.57;28.37;;;0.90;99.90;;;;;;5032189;28;20494;-74
2021/03/02 03:23:28;;;;;;;30.83;27.73;;;0.80;99.90;;;;;;5036574;28;20464;-75
2021/03/02 03:25:54;;;;;;;32.30;29.07;;;0.90;99.90;;;;;;5038371;28;20459;-72
2021/03/02 03:28:23;;;;;;;31.87;28.77;;;0.90;99.90;;;;;;5034656;28;20467;-73
2021/03/02 03:30:50;;;;;;;30.73;27.50;;;0.80;99.90;;;;;;5033676;28;20961;-75
2021/03/02 03:33:20;;;;;;;31.27;27.90;;;0.80;99.90;;;;;;5032497;28;20484;-74
2021/03/02 03:35:47;;;;;;;31.37;28.20;;;0.80;99.90;;;;;;5025431;28;20467;-76
2021/03/02 03:38:13;;;;;;;34.30;28.80;;;0.80;99.90;;;;;;5037047;28;20482;-75
2021/03/02 03:40:39;;;;;;;31.40;27.97;;;0.80;99.90;;;;;;5032941;28;20456;-76
2021/03/02 03:43:06;;;;;;;30.07;27.13;;;0.80;99.90;;;;;;5039547;28;20458;-72
2021/03/02 03:45:32;;;;;;;30.63;27.57;;;0.70;99.90;;;;;;5039356;28;20463;-76
2021/03/02 03:47:59;;;;;;;34.00;29.00;;;0.80;99.90;;;;;;5039921;28;20464;-74
2021/03/02 03:50:25;;;;;;;31.13;28.00;;;0.80;99.90;;;;;;5038267;28;20471;-74
2021/03/02 03:52:55;;;;;;;30.00;27.23;;;0.80;99.90;;;;;;5038256;28;20547;-74
2021/03/02 03:55:27;;;;;;;32.20;28.30;;;0.80;99.90;;;;;;5044400;28;20462;-76
2021/03/02 03:57:55;;;;;;;30.50;27.50;;;0.80;99.90;;;;;;5040476;28;20847;-74
2021/03/02 04:00:23;;;;;;;30.00;26.63;;;0.80;99.90;;;;;;5039800;28;20920;-74
2021/03/02 04:02:50;;;;;;;30.37;27.10;;;0.80;99.90;;;;;;5027367;28;20463;-75
2021/03/02 04:05:18;;;;;;;31.83;28.60;;;0.80;99.90;;;;;;5036446;28;20460;-77
2021/03/02 04:07:46;;;;;;;29.77;26.67;;;0.80;99.90;;;;;;5040695;28;21046;-77
2021/03/02 04:10:14;;;;;;;32.37;27.90;;;0.90;99.90;;;;;;5040785;28;20491;-75
2021/03/02 04:12:43;;;;;;;34.17;29.23;;;0.80;99.90;;;;;;5035426;28;20470;-77
2021/03/02 04:15:10;;;;;;;31.23;27.93;;;0.70;99.90;;;;;;5038358;28;20471;-72
2021/03/02 04:17:37;;;;;;;32.60;28.97;;;0.60;99.90;;;;;;5031174;28;20942;-72
2021/03/02 04:20:05;;;;;;;33.67;28.57;;;0.60;99.90;;;;;;5040591;28;20549;-76
2021/03/02 04:22:35;;;;;;;33.57;29.17;;;0.80;99.90;;;;;;5036682;28;20856;-76
2021/03/02 04:25:02;;;;;;;33.40;27.67;;;0.80;99.90;;;;;;5033744;28;20475;-74
2021/03/02 04:27:29;;;;;;;29.83;26.83;;;0.80;99.90;;;;;;5041141;28;20510;-75
2021/03/02 04:29:55;;;;;;;31.47;27.97;;;0.70;99.90;;;;;;5035187;28;20478;-77
2021/03/02 04:32:21;;;;;;;34.73;27.30;;;0.70;99.90;;;;;;5037904;28;20497;-76
2021/03/02 04:34:47;;;;;;;29.67;26.67;;;0.70;99.90;;;;;;5038396;28;20469;-71
2021/03/02 04:37:14;;;;;;;29.47;26.30;;;0.60;99.90;;;;;;5038101;28;20967;-74
2021/03/02 04:39:40;;;;;;;29.07;26.20;;;0.70;99.90;;;;;;5038794;28;20502;-75
2021/03/02 04:42:07;;;;;;;33.30;27.77;;;0.70;99.90;;;;;;5041535;28;20469;-73
2021/03/02 04:44:34;;;;;;;29.23;26.10;;;0.70;99.90;;;;;;5038223;28;20839;-76
2021/03/02 04:47:00;;;;;;;30.10;27.27;;;0.70;99.90;;;;;;5036567;28;21062;-74
2021/03/02 04:49:27;;;;;;;28.33;25.43;;;0.60;99.90;;;;;;5039038;28;20490;-71
2021/03/02 04:51:53;;;;;;;30.37;26.57;;;0.70;99.90;;;;;;5040203;28;20464;-73
2021/03/02 04:54:20;;;;;;;30.90;27.60;;;0.70;99.90;;;;;;5039604;28;20497;-74
2021/03/02 04:56:46;;;;;;;28.67;25.77;;;0.70;99.90;;;;;;5036338;28;20463;-71
2021/03/02 04:59:13;;;;;;;28.20;25.40;;;0.70;99.90;;;;;;5032182;28;20549;-74
2021/03/02 05:01:40;;;;;;;48.33;26.20;;;0.70;99.90;;;;;;5040371;28;20839;-73
2021/03/02 05:04:06;;;;;;;30.40;26.67;;;0.90;99.90;;;;;;5033040;28;20459;-75
2021/03/02 05:06:33;;;;;;;36.43;26.30;;;1.00;99.90;;;;;;5036558;28;20494;-72
2021/03/02 05:09:00;;;;;;;33.43;26.10;;;0.90;99.90;;;;;;5037344;28;20468;-72
2021/03/02 05:11:26;;;;;;;43.43;26.70;;;0.90;99.90;;;;;;5038044;28;20901;-74
2021/03/02 05:13:53;;;;;;;31.67;25.27;;;0.90;99.90;;;;;;5035465;28;20477;-73
2021/03/02 05:16:19;;;;;;;37.87;26.30;;;1.00;99.90;;;;;;5041158;28;20463;-76
2021/03/02 05:18:48;;;;;;;29.40;26.30;;;1.10;99.90;;;;;;5036331;28;20529;-71
2021/03/02 05:21:14;;;;;;;34.10;26.40;;;1.20;99.90;;;;;;5036435;28;20900;-76
2021/03/02 05:23:41;;;;;;;31.50;26.33;;;1.30;99.90;;;;;;5034052;28;20467;-75
2021/03/02 05:26:07;;;;;;;29.70;26.50;;;1.50;99.90;;;;;;5039282;28;21035;-71
2021/03/02 05:28:34;;;;;;;31.20;25.57;;;1.50;99.90;;;;;;5032690;28;20502;-72
2021/03/02 05:31:00;;;;;;;29.80;26.10;;;1.60;99.90;;;;;;5033584;28;20507;-73
2021/03/02 05:33:26;;;;;;;31.33;26.13;;;1.70;99.90;;;;;;5032010;28;20803;-77
2021/03/02 05:35:54;;;;;;;28.07;25.17;;;1.90;99.90;;;;;;5036898;28;20460;-73
2021/03/02 05:38:20;;;;;;;29.13;26.00;;;2.20;99.90;;;;;;5033641;28;20637;-75
2021/03/02 05:40:47;;;;;;;27.27;24.03;;;2.30;99.90;;;;;;5039292;28;20882;-71
2021/03/02 05:43:13;;;;;;;29.43;25.80;;;2.40;99.90;;;;;;5039862;28;20496;-73
2021/03/02 05:45:39;;;;;;;33.93;26.87;;;2.50;99.90;;;;;;5038396;28;20467;-76
2021/03/02 05:48:10;;;;;;;27.80;25.00;;;2.60;99.90;;;;;;5035112;28;20958;-74
2021/03/02 05:50:37;;;;;;;28.97;26.10;;;2.50;99.90;;;;;;5035945;28;20543;-75
2021/03/02 05:53:04;;;;;;;30.07;26.97;;;2.60;99.90;;;;;;5040149;28;20467;-70
2021/03/02 05:55:34;;;;;;;36.43;27.10;;;2.60;99.90;;;;;;5039981;28;20462;-74
2021/03/02 05:58:02;;;;;;;30.93;27.67;;;2.60;99.90;;;;;;5042585;28;20491;-70
2021/03/02 06:00:29;;;;;;;31.90;28.67;;;2.60;99.90;;;;;;5037879;28;20550;-72
2021/03/02 06:02:56;;;;;;;32.00;28.77;;;2.50;99.90;;;;;;5036861;28;20980;-75
2021/03/02 06:05:22;;;;;;;32.83;29.47;;;2.50;99.90;;;;;;5036355;28;20473;-71
2021/03/02 06:07:48;;;;;;;36.20;29.03;;;2.60;99.90;;;;;;5040143;28;20463;-72
2021/03/02 06:10:17;;;;;;;32.90;28.10;;;2.70;99.90;;;;;;5039240;28;20824;-74
2021/03/02 06:12:54;;;;;;;30.47;27.17;;;2.80;99.90;;;;;;5034350;28;20959;-71
2021/03/02 06:15:21;;;;;;;34.80;28.57;;;2.80;99.90;;;;;;5035132;28;20468;-71
2021/03/02 06:17:48;;;;;;;33.10;29.23;;;2.80;99.90;;;;;;5031045;28;20902;-71
2021/03/02 06:20:20;;;;;;;31.77;28.40;;;2.80;99.90;;;;;;5036695;28;20482;-73
2021/03/02 06:22:47;;;;;;;30.93;27.67;;;2.80;99.90;;;;;;5031284;28;20464;-75
2021/03/02 06:25:28;;;;;;;31.70;28.47;;;2.90;99.90;;;;;;5033430;28;20461;-70
2021/03/02 06:27:55;;;;;;;31.00;27.87;;;2.80;99.90;;;;;;5032401;28;20482;-74
2021/03/02 06:30:23;;;;;;;38.10;29.40;;;2.90;99.90;;;;;;5032968;28;20467;-73
2021/03/02 06:32:52;;;;;;;32.37;28.77;;;2.80;99.90;;;;;;5037717;28;20551;-72
2021/03/02 06:35:34;;;;;;;41.53;30.30;;;2.70;99.90;;;;;;5038277;28;20790;-75
2021/03/02 06:38:01;;;;;;;33.27;29.43;;;2.70;99.90;;;;;;5032438;28;20514;-73
2021/03/02 06:40:40;;;;;;;31.47;28.07;;;2.70;99.90;;;;;;5032808;28;20466;-72
2021/03/02 06:43:08;;;;;;;32.93;29.40;;;2.80;99.90;;;;;;5028112;28;20455;-73
2021/03/02 06:45:35;;;;;;;40.30;29.50;;;2.90;99.90;;;;;;5039310;28;20467;-73
2021/03/02 06:48:04;;;;;;;36.90;29.47;;;2.90;99.90;;;;;;5036091;28;20819;-74
2021/03/02 06:50:37;;;;;;;32.70;29.37;;;3.00;99.90;;;;;;5039540;28;20464;-76
2021/03/02 06:53:09;;;;;;;32.33;29.13;;;3.00;99.90;;;;;;5036163;28;20478;-74
2021/03/02 06:55:37;;;;;;;34.27;30.57;;;3.10;99.90;;;;;;5031598;28;20858;-74
2021/03/02 06:58:25;;;;;;;38.20;31.63;;;3.20;99.90;;;;;;5035573;28;21016;-74
2021/03/02 07:00:54;;;;;;;39.20;30.70;;;3.30;99.90;;;;;;5027539;28;21025;-71
2021/03/02 07:03:23;;;;;;;36.03;30.27;;;3.40;99.90;;;;;;5033326;28;20515;-73
2021/03/02 07:05:51;;;;;;;37.13;30.57;;;3.40;99.90;;;;;;5038019;28;20467;-74
2021/03/02 07:08:18;;;;;;;36.60;31.53;;;3.40;99.90;;;;;;5031156;28;20466;-74
2021/03/02 07:10:49;;;;;;;37.13;32.67;;;3.50;99.90;;;;;;5032715;28;20502;-73
2021/03/02 07:13:16;;;;;;;36.37;31.97;;;3.60;99.90;;;;;;5034040;28;20833;-75
2021/03/02 07:15:45;;;;;;;36.70;31.40;;;3.70;99.90;;;;;;5036513;28;20464;-73
2021/03/02 07:18:15;;;;;;;37.47;32.00;;;3.80;99.90;;;;;;5038719;28;20486;-72
2021/03/02 07:20:48;;;;;;;35.97;31.80;;;3.90;99.90;;;;;;5040841;28;20490;-76
2021/03/02 07:23:17;;;;;;;36.10;32.30;;;4.00;99.90;;;;;;5036877;28;20459;-72
2021/03/02 07:25:46;;;;;;;36.10;32.43;;;4.10;99.90;;;;;;5036800;28;20472;-73
2021/03/02 07:28:15;;;;;;;41.17;32.00;;;4.10;99.90;;;;;;5038175;28;20467;-72
2021/03/02 07:30:44;;;;;;;34.97;31.17;;;4.20;99.90;;;;;;5038498;28;20471;-72
2021/03/02 07:33:12;;;;;;;38.27;31.23;;;4.30;99.90;;;;;;5038356;28;20460;-69
2021/03/02 07:35:39;;;;;;;36.50;32.60;;;4.40;99.90;;;;;;5041987;28;20467;-75
2021/03/02 07:38:14;;;;;;;35.00;31.20;;;4.50;99.90;;;;;;5032879;28;20506;-74
2021/03/02 07:40:45;;;;;;;38.30;32.43;;;4.50;99.90;;;;;;5037686;28;21213;-72
2021/03/02 07:43:30;;;;;;;36.60;32.13;;;4.60;99.90;;;;;;5031257;28;20463;-73
2021/03/02 07:45:57;;;;;;;38.23;31.70;;;4.70;99.90;;;;;;5028644;28;20461;-74
2021/03/02 07:48:33;;;;;;;36.20;32.37;;;4.80;99.90;;;;;;5024802;28;20913;-70
2021/03/02 07:51:13;;;;;;;36.50;32.83;;;4.80;99.90;;;;;;5029768;28;20828;-70
2021/03/02 07:53:41;;;;;;;39.07;32.43;;;5.00;99.90;;;;;;5014997;28;20460;-72
2021/03/02 07:56:22;;;;;;;36.23;31.30;;;5.10;99.90;;;;;;5028166;28;20471;-73
2021/03/02 07:59:18;;;;;;;43.10;34.57;;;5.20;99.90;;;;;;5037048;28;20487;-70
2021/03/02 08:01:45;;;;;;;41.43;33.13;;;5.30;99.90;;;;;;5030186;28;20489;-70
2021/03/02 08:04:26;;;;;;;40.97;32.40;;;5.40;99.90;;;;;;5027269;28;20511;-72
2021/03/02 08:06:54;;;;;;;40.50;35.23;;;5.50;99.90;;;;;;5032769;28;20467;-71
2021/03/02 08:09:29;;;;;;;40.47;36.17;;;5.60;99.90;;;;;;5032946;28;20483;-72
2021/03/02 08:12:16;;;;;;;40.50;34.90;;;5.70;99.90;;;;;;5033585;28;20497;-72
2021/03/02 08:14:42;;;;;;;43.90;36.57;;;5.80;99.90;;;;;;5028578;28;20542;-73
2021/03/02 08:17:18;;;;;;;41.43;33.60;;;5.90;99.90;;;;;;5035976;28;20464;-75
2021/03/02 08:19:47;;;;;;;38.87;33.73;;;6.00;99.90;;;;;;5030573;28;20488;-72
2021/03/02 08:22:48;;;;;;;41.97;35.90;;;6.20;99.90;;;;;;5023902;28;20487;-72
2021/03/02 08:25:36;;;;;;;41.40;34.03;;;6.30;99.90;;;;;;5038581;28;20547;-75
2021/03/02 08:28:04;;;;;;;37.60;33.80;;;6.50;99.90;;;;;;5021797;28;20839;-72
2021/03/02 08:30:35;;;;;;;41.13;34.87;;;6.60;99.90;;;;;;5032671;28;20466;-73
2021/03/02 08:33:06;;;;;;;42.90;35.20;;;6.80;99.90;;;;;;5034333;28;20503;-74
2021/03/02 08:35:35;;;;;;;43.37;35.60;;;6.90;99.90;;;;;;5032022;28;20551;-73
2021/03/02 08:38:04;;;;;;;38.40;34.60;;;6.90;99.90;;;;;;5036858;28;20847;-73
2021/03/02 08:40:45;;;;;;;38.83;34.83;;;7.00;99.90;;;;;;5030615;28;20463;-74
2021/03/02 08:43:13;;;;;;;38.67;33.73;;;7.20;99.90;;;;;;5029889;28;20464;-73
2021/03/02 08:45:41;;;;;;;39.30;35.30;;;7.40;99.90;;;;;;5030997;28;20875;-71
2021/03/02 08:48:19;;;;;;;39.53;33.20;;;7.50;99.90;;;;;;5032226;28;20502;-73
2021/03/02 08:50:50;;;;;;;37.63;32.90;;;7.70;99.90;;;;;;5033742;28;20901;-74
2021/03/02 08:53:46;;;;;;;35.40;32.13;;;7.90;99.90;;;;;;5032577;28;20519;-77
2021/03/02 08:56:20;;;;;;;34.70;31.27;;;7.90;99.90;;;;;;5041299;28;20468;-73
2021/03/02 08:58:48;;;;;;;36.20;32.53;;;8.00;99.90;;;;;;5037352;28;20683;-73
2021/03/02 09:01:16;;;;;;;35.13;31.57;;;8.00;99.90;;;;;;5035144;28;20476;-75
2021/03/02 09:03:44;;;;;;;36.80;29.53;;;8.00;99.90;;;;;;5024426;28;20473;-75
2021/03/02 09:06:14;;;;;;;33.17;29.70;;;8.00;99.90;;;;;;5032067;28;20579;-76
2021/03/02 09:08:52;;;;;;;38.93;28.17;;;8.00;99.90;;;;;;5023317;28;20500;-73
2021/03/02 09:11:22;;;;;;;38.60;28.73;;;8.20;99.90;;;;;;5027894;28;20455;-72
2021/03/02 09:13:49;;;;;;;30.93;28.00;;;8.40;99.90;;;;;;5027105;28;20561;-73
2021/03/02 09:16:27;;;;;;;34.97;29.40;;;8.50;99.90;;;;;;5034074;28;20456;-73
2021/03/02 09:19:03;;;;;;;33.00;27.87;;;8.50;99.90;;;;;;5032151;28;20502;-73
2021/03/02 09:21:31;;;;;;;34.40;28.60;;;8.60;99.90;;;;;;5033089;28;20487;-76
2021/03/02 09:23:58;;;;;;;30.20;26.30;;;8.60;99.90;;;;;;5037385;28;20487;-73
2021/03/02 09:26:26;;;;;;;30.07;27.30;;;8.70;99.90;;;;;;5030485;28;20477;-77
2021/03/02 09:28:54;;;;;;;33.13;29.97;;;8.90;99.90;;;;;;5031487;28;20477;-73
2021/03/02 09:31:21;;;;;;;30.60;27.57;;;9.00;99.90;;;;;;5032979;28;20475;-74
2021/03/02 09:33:48;;;;;;;32.23;28.80;;;9.10;99.90;;;;;;5031625;28;20851;-77
2021/03/02 09:36:15;;;;;;;29.70;26.60;;;9.20;99.90;;;;;;5035027;28;20495;-73
2021/03/02 09:38:43;;;;;;;30.13;27.10;;;9.30;99.90;;;;;;5032299;28;20486;-76
2021/03/02 09:41:09;;;;;;;29.90;26.70;;;9.40;99.90;;;;;;5026019;28;20475;-76
2021/03/02 09:43:37;;;;;;;39.53;26.73;;;9.50;99.90;;;;;;5032977;28;21117;-73
2021/03/02 09:46:04;;;;;;;33.20;27.27;;;9.70;99.90;;;;;;5034377;28;20461;-74
2021/03/02 09:48:44;;;;;;;28.23;25.43;;;9.90;99.90;;;;;;5032842;28;21049;-74
2021/03/02 09:51:28;;;;;;;30.07;27.03;;;10.00;99.90;;;;;;5030947;28;20529;-74
2021/03/02 09:54:09;;;;;;;28.30;25.60;;;10.20;99.90;;;;;;5033619;28;20630;-73
2021/03/02 09:56:36;;;;;;;30.60;24.40;;;10.40;99.90;;;;;;5033758;28;20518;-73
2021/03/02 09:59:03;;;;;;;28.27;25.20;;;10.50;99.90;;;;;;5036061;28;20487;-74
2021/03/02 10:01:29;;;;;;;28.50;24.90;;;10.50;99.90;;;;;;5031539;28;20464;-73
2021/03/02 10:03:55;;;;;;;26.03;23.73;;;10.60;99.90;;;;;;5022916;28;21038;-74
2021/03/02 10:06:25;;;;;;;28.57;25.67;;;10.60;99.90;;;;;;5028572;28;20496;-74
2021/03/02 10:08:52;;;;;;;26.40;23.80;;;10.70;99.90;;;;;;5035692;28;20984;-74
2021/03/02 10:11:21;;;;;;;24.33;22.27;;;10.90;99.90;;;;;;5029734;28;20522;-74
2021/03/02 10:13:49;;;;;;;28.33;25.30;;;10.80;99.90;;;;;;5033172;28;20934;-74
2021/03/02 10:16:28;;;;;;;27.53;25.00;;;11.00;99.90;;;;;;5032016;28;20518;-74
2021/03/02 10:18:57;;;;;;;25.30;22.90;;;11.40;99.90;;;;;;5032811;28;20997;-74
2021/03/02 10:21:25;;;;;;;25.00;22.43;;;12.50;99.90;;;;;;5033103;28;20480;-74
2021/03/02 10:23:54;;;;;;;26.20;23.70;;;13.30;99.90;;;;;;5026876;28;20479;-75
2021/03/02 10:26:34;;;;;;;26.57;24.23;;;13.90;99.90;;;;;;5031398;28;20539;-75
2021/03/02 10:29:02;;;;;;;27.40;23.20;;;14.20;99.90;;;;;;5029442;28;20476;-75
2021/03/02 10:31:28;;;;;;;26.10;23.67;;;14.60;99.90;;;;;;5035819;28;20836;-75
2021/03/02 10:33:55;;;;;;;26.97;24.57;;;15.00;99.90;;;;;;5029635;28;20460;-74
2021/03/02 10:36:27;;;;;;;25.83;23.67;;;15.50;99.90;;;;;;5027915;28;20982;-74
2021/03/02 10:38:55;;;;;;;25.90;23.40;;;16.00;99.90;;;;;;5026497;28;21033;-73
2021/03/02 10:41:22;;;;;;;25.53;23.23;;;16.80;99.90;;;;;;5026931;28;20511;-73
2021/03/02 10:43:52;;;;;;;27.80;24.20;;;17.10;99.90;;;;;;5037986;28;20595;-76
2021/03/02 10:46:19;;;;;;;25.10;23.10;;;18.30;99.90;;;;;;5034402;28;20451;-73
2021/03/02 10:48:46;;;;;;;38.50;24.97;;;18.80;99.90;;;;;;5029229;28;20475;-73
2021/03/02 10:51:14;;;;;;;27.57;24.90;;;19.20;99.90;;;;;;5029219;28;20994;-73
2021/03/02 10:53:41;;;;;;;25.17;22.70;;;19.30;99.90;;;;;;5032704;28;20467;-75
2021/03/02 10:56:07;;;;;;;25.73;23.43;;;19.60;99.90;;;;;;5034677;28;20451;-72
2021/03/02 10:58:36;;;;;;;25.23;23.07;;;19.70;99.90;;;;;;5029808;28;20487;-74
2021/03/02 11:01:02;;;;;;;25.77;23.33;;;19.60;99.90;;;;;;5036906;28;20482;-74
2021/03/02 11:03:29;;;;;;;26.77;24.20;;;19.60;99.90;;;;;;5030665;28;20501;-74
2021/03/02 11:05:55;;;;;;;24.60;22.33;;;20.10;99.00;;;;;;5031204;28;20488;-74
2021/03/02 11:08:21;;;;;;;25.47;23.03;;;20.20;99.20;;;;;;5038070;28;20466;-74
2021/03/02 11:10:49;;;;;;;28.70;23.27;;;19.40;98.10;;;;;;5035007;28;20491;-76
2021/03/02 11:13:16;;;;;;;40.23;24.30;;;19.20;98.80;;;;;;5030747;28;20468;-75
2021/03/02 11:15:44;;;;;;;26.83;24.43;;;19.20;98.80;;;;;;5029980;28;20487;-73
2021/03/02 11:18:10;;;;;;;26.77;24.33;;;19.80;99.90;;;;;;5030315;28;20995;-74
2021/03/02 11:20:38;;;;;;;27.93;24.20;;;20.60;97.60;;;;;;5034615;28;20490;-73
2021/03/02 11:23:05;;;;;;;25.40;23.13;;;20.70;98.30;;;;;;5029101;28;20464;-73
2021/03/02 11:25:31;;;;;;;27.00;24.60;;;21.50;97.90;;;;;;5027378;28;20882;-74
2021/03/02 11:27:58;;;;;;;26.77;24.40;;;22.10;96.20;;;;;;5029284;28;20833;-76
2021/03/02 11:30:25;;;;;;;33.13;25.17;;;21.60;95.70;;;;;;5033427;28;20550;-74
2021/03/02 11:32:53;;;;;;;26.63;24.33;;;21.00;94.90;;;;;;5033334;28;20456;-73
2021/03/02 11:35:19;;;;;;;27.33;24.67;;;20.80;95.00;;;;;;5029459;28;20464;-73
2021/03/02 11:37:46;;;;;;;26.53;24.00;;;21.20;96.40;;;;;;5023654;28;20477;-74
2021/03/02 11:40:15;;;;;;;28.07;25.77;;;21.50;94.80;;;;;;5033587;28;20488;-74
2021/03/02 11:42:42;;;;;;;26.63;24.20;;;21.50;94.50;;;;;;5035327;28;20943;-73
2021/03/02 11:45:11;;;;;;;28.80;24.50;;;21.60;94.30;;;;;;5026919;28;20865;-73
2021/03/02 11:47:37;;;;;;;27.03;24.73;;;21.50;94.20;;;;;;5032548;28;20566;-75
2021/03/02 11:50:07;;;;;;;26.90;24.60;;;20.80;94.10;;;;;;5033635;28;20453;-73
2021/03/02 11:52:33;;;;;;;26.70;24.07;;;20.70;95.10;;;;;;5028131;28;21060;-73
2021/03/02 11:55:00;;;;;;;29.20;24.37;;;21.10;94.80;;;;;;5031184;28;20457;-73
2021/03/02 11:57:26;;;;;;;26.67;23.97;;;21.30;93.60;;;;;;5027251;28;20460;-75
2021/03/02 11:59:52;;;;;;;25.70;23.33;;;21.40;94.10;;;;;;5021699;28;20499;-73
2021/03/02 12:02:19;;;;;;;26.23;23.97;;;22.00;94.10;;;;;;5033166;28;20703;-75
2021/03/02 12:04:45;;;;;;;26.87;24.27;;;22.20;93.60;;;;;;5046878;28;21274;-74
2021/03/02 12:07:13;;;;;;;26.87;24.00;;;22.10;93.30;;;;;;5031733;28;20554;-74
2021/03/02 12:09:40;;;;;;;34.50;24.70;;;21.70;93.00;;;;;;5038633;28;20479;-72
2021/03/02 12:12:07;;;;;;;26.40;24.00;;;21.80;93.50;;;;;;5034344;28;20468;-73
2021/03/02 12:14:34;;;;;;;26.00;23.70;;;22.30;92.50;;;;;;5034367;28;20581;-73
2021/03/02 12:17:02;;;;;;;26.17;23.77;;;22.20;92.50;;;;;;5034175;28;20463;-72
2021/03/02 12:19:29;;;;;;;30.20;23.70;;;22.70;92.20;;;;;;5029579;28;20499;-74
2021/03/02 12:21:56;;;;;;;26.57;24.30;;;22.40;91.60;;;;;;5033574;28;20576;-72
2021/03/02 12:24:24;;;;;;;27.30;24.90;;;22.50;92.80;;;;;;5033048;28;20546;-72
2021/03/02 12:26:50;;;;;;;35.87;26.53;;;22.70;92.00;;;;;;5032552;28;20456;-72
2021/03/02 12:29:17;;;;;;;29.73;25.10;;;22.50;91.90;;;;;;5034027;28;21057;-71
2021/03/02 12:31:44;;;;;;;28.33;25.53;;;22.60;92.50;;;;;;5032734;28;20968;-72
2021/03/02 12:34:11;;;;;;;26.70;24.30;;;22.70;91.40;;;;;;5023167;28;20802;-72
2021/03/02 12:36:38;;;;;;;28.10;25.50;;;22.60;91.80;;;;;;5027621;28;20464;-72
2021/03/02 12:39:06;;;;;;;27.07;24.50;;;22.80;91.60;;;;;;5028376;28;20586;-73
2021/03/02 12:41:33;;;;;;;27.23;24.80;;;22.50;91.10;;;;;;5032588;28;20475;-72
2021/03/02 12:44:00;;;;;;;26.73;24.33;;;22.50;91.00;;;;;;5034334;28;20475;-72
2021/03/02 12:46:26;;;;;;;27.87;25.37;;;22.80;91.50;;;;;;5033534;28;20448;-72
2021/03/02 12:48:52;;;;;;;28.47;25.77;;;23.00;91.10;;;;;;5029084;28;20464;-72
2021/03/02 12:51:19;;;;;;;27.97;25.50;;;23.40;90.90;;;;;;5035155;28;20474;-72
2021/03/02 12:53:46;;;;;;;28.13;25.70;;;23.40;88.50;;;;;;5034494;28;20483;-72
2021/03/02 12:56:12;;;;;;;27.73;25.13;;;24.00;90.30;;;;;;5037222;28;20460;-74
2021/03/02 12:58:39;;;;;;;28.23;25.27;;;23.30;87.00;;;;;;5036922;28;20479;-73
2021/03/02 13:01:06;;;;;;;26.60;24.30;;;23.50;90.00;;;;;;5038474;28;20464;-72